Absecon Heights, New Jersey
Current Conditions -  °F | °C
As of 6:54 AM on Friday 19 Dec 2014 (Local Time) from KACY Reporting Station
Overcast Overcast  
Wind Chill: -2°   Ceiling: 3100
Heat Index:   Visibility: 10mi
Dew Point: -3°   Wind: 9mph
Humidity: 70%   Direction: 280°W
Pressure: 30.05"   Gusts: NA
Location:  39.4315°N, 74.5003°W
Report Text: KACY 191154Z 28008KT 10SM OVC031 02/M03 A3005 RMK AO2 SLP176 T00171033 10022 20011 53006
Loading
Personal Weather Stations






























Interactive Weather Map New forecast layout! Learn more

10-Day Weather Forecast

Advertisements
Track Severe Weather on mobile